sensor_id;sensor_type;location;lat;lon;timestamp;pressure;altitude;pressure_sealevel;temperature;humidity
42003;BME280;27693;50.506;30.832;2022-12-07T00:29:47;100148.97;;;-4.36;74.60
42003;BME280;27693;50.506;30.832;2022-12-07T00:30:49;100143.95;;;-4.31;73.80
42003;BME280;27693;50.506;30.832;2022-12-07T00:31:51;100151.78;;;-4.22;74.88
42003;BME280;27693;50.506;30.832;2022-12-07T00:32:54;100140.85;;;-4.18;75.09
42003;BME280;27693;50.506;30.832;2022-12-07T00:33:57;100133.33;;;-4.13;73.63
42003;BME280;27693;50.506;30.832;2022-12-07T00:34:59;100134.45;;;-4.01;74.02
42003;BME280;27693;50.506;30.832;2022-12-07T00:36:03;100128.64;;;-3.95;74.30
42003;BME280;27693;50.506;30.832;2022-12-07T00:37:06;100132.95;;;-3.91;73.67
42003;BME280;27693;50.506;30.832;2022-12-07T00:38:09;100134.78;;;-3.83;73.14
42003;BME280;27693;50.506;30.832;2022-12-07T00:39:10;100138.14;;;-3.85;72.52
42003;BME280;27693;50.506;30.832;2022-12-07T00:40:12;100131.36;;;-3.84;72.12
42003;BME280;27693;50.506;30.832;2022-12-07T00:41:17;100128.11;;;-3.77;72.83
42003;BME280;27693;50.506;30.832;2022-12-07T00:42:19;100127.25;;;-3.79;72.33
42003;BME280;27693;50.506;30.832;2022-12-07T00:43:21;100130.77;;;-3.71;72.44
42003;BME280;27693;50.506;30.832;2022-12-07T00:44:23;100122.31;;;-3.70;71.67
42003;BME280;27693;50.506;30.832;2022-12-07T00:45:25;100119.95;;;-3.60;71.77
42003;BME280;27693;50.506;30.832;2022-12-07T00:46:27;100124.33;;;-3.53;72.06
42003;BME280;27693;50.506;30.832;2022-12-07T00:47:29;100126.76;;;-3.59;71.71
42003;BME280;27693;50.506;30.832;2022-12-07T00:48:31;100121.60;;;-3.62;71.14
42003;BME280;27693;50.506;30.832;2022-12-07T00:49:34;100119.95;;;-3.60;71.61
42003;BME280;27693;50.506;30.832;2022-12-07T00:50:37;100121.56;;;-3.65;71.36
42003;BME280;27693;50.506;30.832;2022-12-07T00:51:39;100115.49;;;-3.72;70.91
42003;BME280;27693;50.506;30.832;2022-12-07T00:52:41;100114.80;;;-3.63;71.71
42003;BME280;27693;50.506;30.832;2022-12-07T00:53:43;100109.05;;;-3.55;71.72
42003;BME280;27693;50.506;30.832;2022-12-07T00:54:45;100095.33;;;-3.63;71.71
42003;BME280;27693;50.506;30.832;2022-12-07T00:55:47;100095.33;;;-3.63;71.71
42003;BME280;27693;50.506;30.832;2022-12-07T00:56:49;100103.08;;;-3.55;71.61
42003;BME280;27693;50.506;30.832;2022-12-07T00:57:51;100114.94;;;-3.57;71.53
42003;BME280;27693;50.506;30.832;2022-12-07T00:58:58;100106.52;;;-3.53;71.48
42003;BME280;27693;50.506;30.832;2022-12-07T01:00:02;100114.98;;;-3.54;71.47
42003;BME280;27693;50.506;30.832;2022-12-07T01:01:06;100114.94;;;-3.57;71.58
42003;BME280;27693;50.506;30.832;2022-12-07T01:02:08;100117.48;;;-3.57;71.68
42003;BME280;27693;50.506;30.832;2022-12-07T01:03:12;100108.33;;;-3.47;71.67
42003;BME280;27693;50.506;30.832;2022-12-07T01:04:15;100113.34;;;-3.50;71.40
42003;BME280;27693;50.506;30.832;2022-12-07T01:05:17;100113.33;;;-3.52;71.65
42003;BME280;27693;50.506;30.832;2022-12-07T01:06:20;100119.36;;;-3.45;71.61
42003;BME280;27693;50.506;30.832;2022-12-07T01:07:24;100123.64;;;-3.43;71.57
42003;BME280;27693;50.506;30.832;2022-12-07T01:08:26;100116.80;;;-3.47;71.34
42003;BME280;27693;50.506;30.832;2022-12-07T01:09:28;100101.47;;;-3.50;71.81
42003;BME280;27693;50.506;30.832;2022-12-07T01:10:31;100101.47;;;-3.50;71.81
42003;BME280;27693;50.506;30.832;2022-12-07T01:11:33;100101.70;;;-3.38;72.10
42003;BME280;27693;50.506;30.832;2022-12-07T01:12:35;100094.09;;;-3.36;72.38
42003;BME280;27693;50.506;30.832;2022-12-07T01:13:37;100103.29;;;-3.43;72.67
42003;BME280;27693;50.506;30.832;2022-12-07T01:14:41;100103.29;;;-3.43;72.67
42003;BME280;27693;50.506;30.832;2022-12-07T01:15:44;100099.92;;;-3.42;72.69
42003;BME280;27693;50.506;30.832;2022-12-07T01:16:46;100093.11;;;-3.43;72.29
42003;BME280;27693;50.506;30.832;2022-12-07T01:17:48;100103.45;;;-3.33;73.56
42003;BME280;27693;50.506;30.832;2022-12-07T01:18:52;100080.56;;;-3.33;73.09
42003;BME280;27693;50.506;30.832;2022-12-07T01:19:54;100087.40;;;-3.29;72.75
42003;BME280;27693;50.506;30.832;2022-12-07T01:21:01;100087.25;;;-3.40;72.25
42003;BME280;27693;50.506;30.832;2022-12-07T01:22:04;100087.25;;;-3.40;72.25
42003;BME280;27693;50.506;30.832;2022-12-07T01:23:08;100094.20;;;-3.28;73.69
42003;BME280;27693;50.506;30.832;2022-12-07T01:24:11;100090.17;;;-3.17;73.88
42003;BME280;27693;50.506;30.832;2022-12-07T01:25:14;100086.92;;;-3.07;74.04
42003;BME280;27693;50.506;30.832;2022-12-07T01:26:19;100087.67;;;-3.12;72.67
42003;BME280;27693;50.506;30.832;2022-12-07T01:27:22;100076.61;;;-3.16;72.84
42003;BME280;27693;50.506;30.832;2022-12-07T01:28:25;100091.00;;;-3.18;73.81
42003;BME280;27693;50.506;30.832;2022-12-07T01:29:27;100079.16;;;-3.16;73.62
42003;BME280;27693;50.506;30.832;2022-12-07T01:30:29;100080.67;;;-3.26;73.20
42003;BME280;27693;50.506;30.832;2022-12-07T01:31:31;100077.39;;;-3.18;74.18
42003;BME280;27693;50.506;30.832;2022-12-07T01:32:33;100071.40;;;-3.22;73.91
42003;BME280;27693;50.506;30.832;2022-12-07T01:33:36;100064.56;;;-3.26;73.76
42003;BME280;27693;50.506;30.832;2022-12-07T01:34:39;100074.64;;;-3.32;73.73
42003;BME280;27693;50.506;30.832;2022-12-07T01:35:41;100062.75;;;-3.33;74.29
42003;BME280;27693;50.506;30.832;2022-12-07T01:36:43;100061.09;;;-3.31;75.30
42003;BME280;27693;50.506;30.832;2022-12-07T01:37:44;100063.67;;;-3.28;75.74
42003;BME280;27693;50.506;30.832;2022-12-07T01:38:49;100057.84;;;-3.21;75.49
42003;BME280;27693;50.506;30.832;2022-12-07T01:39:52;100057.84;;;-3.21;75.49
42003;BME280;27693;50.506;30.832;2022-12-07T01:40:55;100063.94;;;-3.11;75.80
42003;BME280;27693;50.506;30.832;2022-12-07T01:41:58;100062.19;;;-3.15;75.28
42003;BME280;27693;50.506;30.832;2022-12-07T01:43:00;100066.20;;;-3.30;75.01
42003;BME280;27693;50.506;30.832;2022-12-07T01:44:22;100052.64;;;-3.30;74.95
42003;BME280;27693;50.506;30.832;2022-12-07T01:45:38;100059.53;;;-3.23;76.12
42003;BME280;27693;50.506;30.832;2022-12-07T01:46:49;100062.11;;;-3.20;75.74
42003;BME280;27693;50.506;30.832;2022-12-07T01:47:55;100053.66;;;-3.17;76.01
42003;BME280;27693;50.506;30.832;2022-12-07T01:48:58;100045.00;;;-3.30;75.63
42003;BME280;27693;50.506;30.832;2022-12-07T01:50:02;100050.76;;;-3.41;75.70
42003;BME280;27693;50.506;30.832;2022-12-07T01:51:09;100049.23;;;-3.29;76.94
42003;BME280;27693;50.506;30.832;2022-12-07T01:52:25;100050.95;;;-3.28;76.65
42003;BME280;27693;50.506;30.832;2022-12-07T01:53:29;100052.57;;;-3.33;75.82
42003;BME280;27693;50.506;30.832;2022-12-07T01:54:33;100045.84;;;-3.30;76.98
42003;BME280;27693;50.506;30.832;2022-12-07T01:55:38;100050.14;;;-3.26;76.92
42003;BME280;27693;50.506;30.832;2022-12-07T01:56:44;100047.58;;;-3.27;76.53
42003;BME280;27693;50.506;30.832;2022-12-07T01:57:52;100038.27;;;-3.27;76.42
42003;BME280;27693;50.506;30.832;2022-12-07T01:58:56;100041.66;;;-3.26;76.10
42003;BME280;27693;50.506;30.832;2022-12-07T02:00:01;100039.17;;;-3.23;75.85
42003;BME280;27693;50.506;30.832;2022-12-07T02:01:06;100040.98;;;-3.16;76.38
42003;BME280;27693;50.506;30.832;2022-12-07T02:02:11;100044.45;;;-3.11;76.45
42003;BME280;27693;50.506;30.832;2022-12-07T02:03:19;100044.40;;;-3.12;75.99
42003;BME280;27693;50.506;30.832;2022-12-07T02:04:23;100035.17;;;-3.07;76.04
42003;BME280;27693;50.506;30.832;2022-12-07T02:05:25;100049.39;;;-3.20;75.44
42003;BME280;27693;50.506;30.832;2022-12-07T02:06:29;100039.30;;;-3.14;76.42
42003;BME280;27693;50.506;30.832;2022-12-07T02:07:34;100040.86;;;-3.22;76.36
42003;BME280;27693;50.506;30.832;2022-12-07T02:08:37;100040.08;;;-3.19;76.90
42003;BME280;27693;50.506;30.832;2022-12-07T02:09:40;100045.77;;;-3.34;76.49
42003;BME280;27693;50.506;30.832;2022-12-07T06:13:39;99907.61;;;-3.87;88.22
42003;BME280;27693;50.506;30.832;2022-12-07T06:14:43;99910.09;;;-3.90;87.95
42003;BME280;27693;50.506;30.832;2022-12-07T06:15:47;99913.59;;;-3.85;87.69
42003;BME280;27693;50.506;30.832;2022-12-07T06:16:50;99905.99;;;-3.82;88.01
42003;BME280;27693;50.506;30.832;2022-12-07T06:17:52;99903.59;;;-3.74;88.62
42003;BME280;27693;50.506;30.832;2022-12-07T06:18:53;99895.17;;;-3.69;88.13
42003;BME280;27693;50.506;30.832;2022-12-07T06:19:55;99899.52;;;-3.61;88.16
42003;BME280;27693;50.506;30.832;2022-12-07T07:02:19;99880.08;;;-3.58;92.79
42003;BME280;27693;50.506;30.832;2022-12-07T07:03:21;99886.78;;;-3.64;93.37
42003;BME280;27693;50.506;30.832;2022-12-07T07:04:24;99879.17;;;-3.61;93.44
42003;BME280;27693;50.506;30.832;2022-12-07T07:05:25;99869.61;;;-3.15;95.80
42003;BME280;27693;50.506;30.832;2022-12-07T07:06:27;99877.98;;;-3.25;95.28
42003;BME280;27693;50.506;30.832;2022-12-07T07:07:29;99880.53;;;-3.24;95.16
42003;BME280;27693;50.506;30.832;2022-12-07T07:08:31;99875.57;;;-3.14;95.35
42003;BME280;27693;50.506;30.832;2022-12-07T07:09:33;99869.86;;;-2.93;96.09
42003;BME280;27693;50.506;30.832;2022-12-07T07:10:35;99872.42;;;-2.92;95.77
42003;BME280;27693;50.506;30.832;2022-12-07T07:11:42;99875.86;;;-2.88;95.32
42003;BME280;27693;50.506;30.832;2022-12-07T07:12:44;99873.23;;;-2.97;94.37
42003;BME280;27693;50.506;30.832;2022-12-07T07:13:46;99872.64;;;-2.75;95.79
42003;BME280;27693;50.506;30.832;2022-12-07T07:14:48;99885.26;;;-2.84;94.77
42003;BME280;27693;50.506;30.832;2022-12-07T07:15:51;99873.30;;;-2.91;94.08
42003;BME280;27693;50.506;30.832;2022-12-07T07:16:54;99880.93;;;-2.91;93.94
42003;BME280;27693;50.506;30.832;2022-12-07T07:17:57;99880.19;;;-2.81;94.94
42003;BME280;27693;50.506;30.832;2022-12-07T07:19:01;99876.73;;;-2.86;94.04
42003;BME280;27693;50.506;30.832;2022-12-07T07:20:04;99873.42;;;-2.80;93.94
42003;BME280;27693;50.506;30.832;2022-12-07T07:21:07;99877.63;;;-2.84;93.66
42003;BME280;27693;50.506;30.832;2022-12-07T07:22:08;99881.96;;;-2.74;94.18
42003;BME280;27693;50.506;30.832;2022-12-07T07:23:10;99872.72;;;-2.64;94.58
42003;BME280;27693;50.506;30.832;2022-12-07T07:24:12;99878.81;;;-2.49;95.49
42003;BME280;27693;50.506;30.832;2022-12-07T07:25:14;99870.29;;;-2.53;94.65
42003;BME280;27693;50.506;30.832;2022-12-07T07:26:16;99875.38;;;-2.53;95.04
42003;BME280;27693;50.506;30.832;2022-12-07T07:27:20;99875.59;;;-2.33;96.09
42003;BME280;27693;50.506;30.832;2022-12-07T07:28:22;99869.62;;;-2.33;95.93
42003;BME280;27693;50.506;30.832;2022-12-07T07:29:24;99874.70;;;-2.36;95.36
42003;BME280;27693;50.506;30.832;2022-12-07T07:30:26;99873.76;;;-2.48;95.09
42003;BME280;27693;50.506;30.832;2022-12-07T07:31:28;99872.10;;;-2.43;94.38
42003;BME280;27693;50.506;30.832;2022-12-07T07:32:31;99861.91;;;-2.43;94.52
42003;BME280;27693;50.506;30.832;2022-12-07T07:33:33;99872.00;;;-2.52;94.43
42003;BME280;27693;50.506;30.832;2022-12-07T07:34:35;99869.45;;;-2.52;94.19
42003;BME280;27693;50.506;30.832;2022-12-07T07:35:37;99873.66;;;-2.57;94.63
42003;BME280;27693;50.506;30.832;2022-12-07T07:36:39;99869.21;;;-2.77;93.82
42003;BME280;27693;50.506;30.832;2022-12-07T07:37:42;99873.47;;;-2.76;93.89
42003;BME280;27693;50.506;30.832;2022-12-07T07:38:43;99878.58;;;-2.73;93.94
42003;BME280;27693;50.506;30.832;2022-12-07T07:39:45;99855.66;;;-2.74;93.88
42003;BME280;27693;50.506;30.832;2022-12-07T07:40:48;99866.84;;;-2.61;94.30
42003;BME280;27693;50.506;30.832;2022-12-07T07:41:51;99856.64;;;-2.61;93.86
42003;BME280;27693;50.506;30.832;2022-12-07T07:42:55;99862.52;;;-2.68;93.32
42003;BME280;27693;50.506;30.832;2022-12-07T07:43:58;99868.33;;;-2.79;93.03
42003;BME280;27693;50.506;30.832;2022-12-07T07:45:12;99866.54;;;-2.89;92.91
42003;BME280;27693;50.506;30.832;2022-12-07T07:46:14;99869.15;;;-2.83;93.09
42003;BME280;27693;50.506;30.832;2022-12-07T07:47:18;99865.73;;;-2.83;93.12
42003;BME280;27693;50.506;30.832;2022-12-07T07:48:20;99869.86;;;-2.93;92.95
42003;BME280;27693;50.506;30.832;2022-12-07T07:49:26;99865.61;;;-2.94;93.19
42003;BME280;27693;50.506;30.832;2022-12-07T07:50:34;99870.70;;;-2.94;93.17
42003;BME280;27693;50.506;30.832;2022-12-07T07:51:37;99865.67;;;-2.88;93.69
42003;BME280;27693;50.506;30.832;2022-12-07T07:52:40;99869.88;;;-2.92;93.41
42003;BME280;27693;50.506;30.832;2022-12-07T07:53:42;99857.13;;;-2.95;93.41
42003;BME280;27693;50.506;30.832;2022-12-07T07:54:44;99863.87;;;-2.98;93.28
42003;BME280;27693;50.506;30.832;2022-12-07T07:55:54;99862.16;;;-2.99;93.51
42003;BME280;27693;50.506;30.832;2022-12-07T07:56:57;99864.19;;;-2.69;95.62
42003;BME280;27693;50.506;30.832;2022-12-07T07:58:00;99870.16;;;-2.67;95.90
42003;BME280;27693;50.506;30.832;2022-12-07T07:59:02;99864.89;;;-2.84;95.06
42003;BME280;27693;50.506;30.832;2022-12-07T08:00:06;99861.57;;;-2.77;95.54
42003;BME280;27693;50.506;30.832;2022-12-07T08:01:11;99866.84;;;-2.61;95.83
42003;BME280;27693;50.506;30.832;2022-12-07T08:02:18;99857.48;;;-2.62;96.02
42003;BME280;27693;50.506;30.832;2022-12-07T08:03:21;99867.01;;;-2.43;96.56
42003;BME280;27693;50.506;30.832;2022-12-07T08:04:24;99860.09;;;-2.54;96.11
42003;BME280;27693;50.506;30.832;2022-12-07T08:05:27;99861.70;;;-2.64;95.93
42003;BME280;27693;50.506;30.832;2022-12-07T08:06:30;99855.60;;;-2.79;95.09
42003;BME280;27693;50.506;30.832;2022-12-07T08:07:34;99863.28;;;-2.76;95.20
42003;BME280;27693;50.506;30.832;2022-12-07T08:08:37;99866.68;;;-2.74;95.90
42003;BME280;27693;50.506;30.832;2022-12-07T08:09:40;99853.88;;;-2.81;95.51
42003;BME280;27693;50.506;30.832;2022-12-07T08:10:42;99854.72;;;-2.81;95.24
42003;BME280;27693;50.506;30.832;2022-12-07T08:11:44;99857.97;;;-2.94;95.07
42003;BME280;27693;50.506;30.832;2022-12-07T08:12:47;99853.75;;;-2.94;95.25
42003;BME280;27693;50.506;30.832;2022-12-07T08:13:49;99848.66;;;-2.95;94.99
42003;BME280;27693;50.506;30.832;2022-12-07T08:14:50;99853.69;;;-3.00;94.90
42003;BME280;27693;50.506;30.832;2022-12-07T08:15:52;99850.25;;;-3.02;94.82
42003;BME280;27693;50.506;30.832;2022-12-07T08:16:54;99845.16;;;-3.03;94.80
42003;BME280;27693;50.506;30.832;2022-12-07T08:17:56;99844.34;;;-2.99;94.87
42003;BME280;27693;50.506;30.832;2022-12-07T08:18:59;99853.74;;;-2.95;94.85
42003;BME280;27693;50.506;30.832;2022-12-07T08:20:04;99852.05;;;-2.93;94.78
42003;BME280;27693;50.506;30.832;2022-12-07T08:21:09;99844.47;;;-2.87;95.03
42003;BME280;27693;50.506;30.832;2022-12-07T08:22:12;99841.92;;;-2.89;94.98
42003;BME280;27693;50.506;30.832;2022-12-07T08:23:14;99836.77;;;-2.95;94.96
42003;BME280;27693;50.506;30.832;2022-12-07T08:24:17;99838.48;;;-2.94;95.05
42003;BME280;27693;50.506;30.832;2022-12-07T08:25:19;99846.41;;;-2.64;96.93
42003;BME280;27693;50.506;30.832;2022-12-07T08:26:23;99840.59;;;-2.52;97.21
42003;BME280;27693;50.506;30.832;2022-12-07T08:27:25;99836.38;;;-2.49;97.11
42003;BME280;27693;50.506;30.832;2022-12-07T08:28:28;99833.73;;;-2.60;96.06
42003;BME280;27693;50.506;30.832;2022-12-07T08:29:30;99833.67;;;-2.64;95.74
42003;BME280;27693;50.506;30.832;2022-12-07T08:30:32;99842.27;;;-2.53;96.26
42003;BME280;27693;50.506;30.832;2022-12-07T08:31:36;99838.09;;;-2.48;96.18
42003;BME280;27693;50.506;30.832;2022-12-07T08:32:38;99833.00;;;-2.45;96.45
42003;BME280;27693;50.506;30.832;2022-12-07T08:33:41;99841.58;;;-2.36;96.61
42003;BME280;27693;50.506;30.832;2022-12-07T08:34:43;99845.10;;;-2.22;97.26
42003;BME280;27693;50.506;30.832;2022-12-07T08:35:45;99840.05;;;-2.16;97.28
42003;BME280;27693;50.506;30.832;2022-12-07T08:36:47;99840.93;;;-2.12;96.99
42003;BME280;27693;50.506;30.832;2022-12-07T08:37:50;99840.80;;;-2.29;96.05
42003;BME280;27693;50.506;30.832;2022-12-07T08:38:52;99833.05;;;-2.42;96.51
42003;BME280;27693;50.506;30.832;2022-12-07T08:39:56;99833.05;;;-2.38;97.15
42003;BME280;27693;50.506;30.832;2022-12-07T08:40:59;99838.89;;;-2.50;96.69
42003;BME280;27693;50.506;30.832;2022-12-07T08:42:01;99828.00;;;-2.35;97.31
42003;BME280;27693;50.506;30.832;2022-12-07T08:43:04;99826.29;;;-2.36;97.57
42003;BME280;27693;50.506;30.832;2022-12-07T08:44:06;99816.98;;;-2.30;98.04
42003;BME280;27693;50.506;30.832;2022-12-07T08:45:11;99824.84;;;-2.06;98.87
42003;BME280;27693;50.506;30.832;2022-12-07T08:46:21;99835.78;;;-2.18;98.48
42003;BME280;27693;50.506;30.832;2022-12-07T08:47:25;99828.05;;;-2.29;97.82
42003;BME280;27693;50.506;30.832;2022-12-07T08:48:28;99827.22;;;-2.27;97.56
42003;BME280;27693;50.506;30.832;2022-12-07T08:49:35;99819.66;;;-2.17;98.14
42003;BME280;27693;50.506;30.832;2022-12-07T08:50:37;99816.11;;;-2.33;96.94
42003;BME280;27693;50.506;30.832;2022-12-07T08:51:40;99809.42;;;-2.22;97.77
42003;BME280;27693;50.506;30.832;2022-12-07T08:52:43;99814.52;;;-2.19;97.77
42003;BME280;27693;50.506;30.832;2022-12-07T08:53:46;99821.42;;;-2.05;98.62
42003;BME280;27693;50.506;30.832;2022-12-07T08:54:48;99816.10;;;-2.35;97.26
42003;BME280;27693;50.506;30.832;2022-12-07T08:55:51;99809.28;;;-2.41;96.87
42003;BME280;27693;50.506;30.832;2022-12-07T08:56:56;99815.31;;;-2.26;97.86
42003;BME280;27693;50.506;30.832;2022-12-07T08:58:00;99818.65;;;-2.35;97.07
42003;BME280;27693;50.506;30.832;2022-12-07T08:59:05;99817.77;;;-2.38;97.51
42003;BME280;27693;50.506;30.832;2022-12-07T09:00:09;99821.33;;;-2.18;98.32
42003;BME280;27693;50.506;30.832;2022-12-07T09:01:11;99812.92;;;-2.06;98.96
42003;BME280;27693;50.506;30.832;2022-12-07T09:02:13;99812.80;;;-2.23;97.89
42003;BME280;27693;50.506;30.832;2022-12-07T09:03:16;99806.03;;;-2.21;97.83
42003;BME280;27693;50.506;30.832;2022-12-07T09:04:26;99804.36;;;-2.16;97.93
42003;BME280;27693;50.506;30.832;2022-12-07T09:05:29;99804.36;;;-2.16;97.21
42003;BME280;27693;50.506;30.832;2022-12-07T09:06:33;99796.80;;;-2.05;97.75
42003;BME280;27693;50.506;30.832;2022-12-07T09:07:36;99794.28;;;-1.97;97.73
42003;BME280;27693;50.506;30.832;2022-12-07T09:08:42;99792.70;;;-1.80;98.26
42003;BME280;27693;50.506;30.832;2022-12-07T09:09:44;99801.16;;;-1.87;97.93
42003;BME280;27693;50.506;30.832;2022-12-07T09:10:47;99796.94;;;-1.83;97.27
42003;BME280;27693;50.506;30.832;2022-12-07T09:11:48;99796.87;;;-1.94;96.56
42003;BME280;27693;50.506;30.832;2022-12-07T09:12:50;99800.30;;;-1.90;96.53
42003;BME280;27693;50.506;30.832;2022-12-07T09:13:54;99796.97;;;-1.77;96.88
42003;BME280;27693;50.506;30.832;2022-12-07T09:14:56;99796.00;;;-1.96;96.15
42003;BME280;27693;50.506;30.832;2022-12-07T09:15:58;99790.93;;;-1.90;95.72
42003;BME280;27693;50.506;30.832;2022-12-07T09:17:08;99792.70;;;-1.78;96.04
42003;BME280;27693;50.506;30.832;2022-12-07T09:18:11;99787.66;;;-1.64;96.79
42003;BME280;27693;50.506;30.832;2022-12-07T09:19:14;99782.53;;;-1.70;96.18
42003;BME280;27693;50.506;30.832;2022-12-07T09:20:16;99780.85;;;-1.70;95.88
42003;BME280;27693;50.506;30.832;2022-12-07T09:21:18;99791.92;;;-1.63;95.82
42003;BME280;27693;50.506;30.832;2022-12-07T09:22:19;99785.17;;;-1.56;95.47
42003;BME280;27693;50.506;30.832;2022-12-07T09:23:22;99784.24;;;-1.69;95.02
42003;BME280;27693;50.506;30.832;2022-12-07T09:24:24;99779.14;;;-1.72;94.84
42003;BME280;27693;50.506;30.832;2022-12-07T09:25:26;99783.44;;;-1.65;94.66
42003;BME280;27693;50.506;30.832;2022-12-07T09:26:29;99767.26;;;-1.67;94.19
42003;BME280;27693;50.506;30.832;2022-12-07T09:27:31;99771.56;;;-1.52;95.28
42003;BME280;27693;50.506;30.832;2022-12-07T09:28:33;99774.05;;;-1.71;94.49
42003;BME280;27693;50.506;30.832;2022-12-07T09:29:37;99768.17;;;-1.51;96.42
42003;BME280;27693;50.506;30.832;2022-12-07T09:30:38;99776.65;;;-1.60;96.49
42003;BME280;27693;50.506;30.832;2022-12-07T09:31:42;99773.22;;;-1.62;96.50
42003;BME280;27693;50.506;30.832;2022-12-07T09:32:45;99762.91;;;-1.87;95.25
42003;BME280;27693;50.506;30.832;2022-12-07T09:33:55;99769.75;;;-1.80;95.99
42003;BME280;27693;50.506;30.832;2022-12-07T09:34:58;99771.46;;;-1.79;96.32
42003;BME280;27693;50.506;30.832;2022-12-07T09:36:01;99780.87;;;-1.61;97.04
42003;BME280;27693;50.506;30.832;2022-12-07T09:37:03;99769.84;;;-1.63;96.73
42003;BME280;27693;50.506;30.832;2022-12-07T09:38:06;99760.49;;;-1.56;97.33
42003;BME280;27693;50.506;30.832;2022-12-07T09:39:08;99757.92;;;-1.62;96.78
42003;BME280;27693;50.506;30.832;2022-12-07T09:40:13;99760.47;;;-1.62;96.97
42003;BME280;27693;50.506;30.832;2022-12-07T09:41:18;99763.91;;;-1.54;97.30
42003;BME280;27693;50.506;30.832;2022-12-07T09:43:35;99758.88;;;-1.35;98.34
42003;BME280;27693;50.506;30.832;2022-12-07T09:44:40;99758.83;;;-1.48;97.59
42003;BME280;27693;50.506;30.832;2022-12-07T09:45:44;99765.73;;;-1.25;98.81
42003;BME280;27693;50.506;30.832;2022-12-07T09:46:50;99759.75;;;-1.27;98.43
42003;BME280;27693;50.506;30.832;2022-12-07T09:47:53;99754.65;;;-1.27;98.48
42003;BME280;27693;50.506;30.832;2022-12-07T09:48:55;99752.11;;;-1.21;98.13
42003;BME280;27693;50.506;30.832;2022-12-07T09:50:16;99756.36;;;-1.24;98.59
42003;BME280;27693;50.506;30.832;2022-12-07T09:51:23;99753.80;;;-1.23;98.48
42003;BME280;27693;50.506;30.832;2022-12-07T09:52:28;99753.82;;;-1.20;97.99
42003;BME280;27693;50.506;30.832;2022-12-07T09:53:37;99748.72;;;-1.20;97.58
42003;BME280;27693;50.506;30.832;2022-12-07T09:54:42;99752.06;;;-1.39;97.02
42003;BME280;27693;50.506;30.832;2022-12-07T09:55:45;99752.08;;;-1.33;96.83
42003;BME280;27693;50.506;30.832;2022-12-07T09:56:47;99751.27;;;-1.12;97.81
42003;BME280;27693;50.506;30.832;2022-12-07T09:57:49;99762.34;;;-1.08;98.22
42003;BME280;27693;50.506;30.832;2022-12-07T09:59:02;99753.83;;;-1.14;97.57
42003;BME280;27693;50.506;30.832;2022-12-07T10:00:19;99752.12;;;-1.24;97.04
42003;BME280;27693;50.506;30.832;2022-12-07T10:01:20;99752.07;;;-1.30;96.78
42003;BME280;27693;50.506;30.832;2022-12-07T10:02:37;99751.23;;;-1.29;96.16
42003;BME280;27693;50.506;30.832;2022-12-07T14:03:43;99696.34;;;-2.35;100.00
42003;BME280;27693;50.506;30.832;2022-12-07T14:04:49;99699.69;;;-2.42;100.00
42003;BME280;27693;50.506;30.832;2022-12-07T14:07:28;99700.55;;;-2.42;100.00
42003;BME280;27693;50.506;30.832;2022-12-07T14:08:31;99687.05;;;-2.28;100.00
42003;BME280;27693;50.506;30.832;2022-12-07T14:09:33;99690.69;;;-1.80;100.00
42003;BME280;27693;50.506;30.832;2022-12-07T14:10:38;99693.19;;;-1.87;100.00
42003;BME280;27693;50.506;30.832;2022-12-07T14:11:40;99693.16;;;-1.94;100.00
42003;BME280;27693;50.506;30.832;2022-12-07T14:12:45;99700.05;;;-1.77;100.00
42003;BME280;27693;50.506;30.832;2022-12-07T14:13:59;99690.69;;;-1.77;100.00
42003;BME280;27693;50.506;30.832;2022-12-07T14:15:03;99696.63;;;-1.81;100.00
42003;BME280;27693;50.506;30.832;2022-12-07T14:17:25;99702.64;;;-1.63;100.00
42003;BME280;27693;50.506;30.832;2022-12-07T14:18:37;99695.87;;;-1.58;100.00
42003;BME280;27693;50.506;30.832;2022-12-07T14:21:02;99702.67;;;-1.54;100.00
42003;BME280;27693;50.506;30.832;2022-12-07T14:22:07;99704.34;;;-1.62;100.00
42003;BME280;27693;50.506;30.832;2022-12-07T14:23:25;99704.39;;;-1.43;100.00
42003;BME280;27693;50.506;30.832;2022-12-07T14:24:28;99707.80;;;-1.48;100.00
42003;BME280;27693;50.506;30.832;2022-12-07T14:25:32;99700.99;;;-1.52;100.00
42003;BME280;27693;50.506;30.832;2022-12-07T14:26:34;99689.05;;;-1.65;99.29
42003;BME280;27693;50.506;30.832;2022-12-07T14:27:36;99687.36;;;-1.51;100.00
42003;BME280;27693;50.506;30.832;2022-12-07T14:28:38;99698.43;;;-1.49;99.87
42003;BME280;27693;50.506;30.832;2022-12-07T14:29:42;99700.16;;;-1.40;99.83
42003;BME280;27693;50.506;30.832;2022-12-07T14:30:44;99699.27;;;-1.59;98.93
42003;BME280;27693;50.506;30.832;2022-12-07T14:31:46;99699.28;;;-1.53;98.99
42003;BME280;27693;50.506;30.832;2022-12-07T14:32:53;99695.87;;;-1.47;99.26
42003;BME280;27693;50.506;30.832;2022-12-07T14:34:02;99689.09;;;-1.48;98.84
42003;BME280;27693;50.506;30.832;2022-12-07T14:36:16;99695.92;;;-1.30;98.60
42003;BME280;27693;50.506;30.832;2022-12-07T14:37:18;99695.09;;;-1.32;98.65
42003;BME280;27693;50.506;30.832;2022-12-07T14:38:23;99701.84;;;-1.43;97.91
42003;BME280;27693;50.506;30.832;2022-12-07T14:39:25;99687.38;;;-1.48;98.72
42003;BME280;27693;50.506;30.832;2022-12-07T14:40:29;99688.24;;;-1.44;98.82
42003;BME280;27693;50.506;30.832;2022-12-07T14:41:31;99687.41;;;-1.35;98.78
42003;BME280;27693;50.506;30.832;2022-12-07T14:42:34;99685.72;;;-1.33;98.64
42003;BME280;27693;50.506;30.832;2022-12-07T14:43:36;99681.44;;;-1.48;98.29
42003;BME280;27693;50.506;30.832;2022-12-07T14:44:40;99688.22;;;-1.56;98.11
42003;BME280;27693;50.506;30.832;2022-12-07T14:45:42;99683.97;;;-1.53;97.96
42003;BME280;27693;50.506;30.832;2022-12-07T14:46:45;99687.33;;;-1.65;97.73
42003;BME280;27693;50.506;30.832;2022-12-07T14:47:48;99682.25;;;-1.60;97.96
42003;BME280;27693;50.506;30.832;2022-12-07T14:48:52;99682.26;;;-1.51;98.03
42003;BME280;27693;50.506;30.832;2022-12-07T14:49:56;99678.00;;;-1.53;97.99
42003;BME280;27693;50.506;30.832;2022-12-07T14:51:01;99675.48;;;-1.52;98.18